This is the latest recevied weather packets stored in our database for station/object KF0ZH. If no packets are shown the sender has not sent any weather packets the latest 1 day(s).
| Time | Temp. | Humidity | Pressure | Rain* | Wind** | Luminosity | Snow |
|---|---|---|---|---|---|---|---|
| 1778001418 | 8.89° C | 53% | 1010 hPa | 0 mm | 1.79 m/s, 299° | - | - |
| 1778001116 | 8.89° C | 52% | 1009.9 hPa | 0 mm | 3.13 m/s, 319° | - | - |
| 1778000819 | 8.89° C | 53% | 1010 hPa | 0 mm | 0 m/s | - | - |
| 1778000517 | 8.89° C | 52% | 1010 hPa | 0 mm | 3.58 m/s, 323° | - | - |
| 1778000228 | 8.89° C | 52% | 1010 hPa | 0 mm | 2.24 m/s, 291° | - | - |
| 1777999917 | 8.33° C | 54% | 1010 hPa | 0 mm | 2.68 m/s, 300° | - | - |
| 1777999616 | 8.33° C | 54% | 1010 hPa | 0 mm | 0 m/s | - | - |
| 1777999016 | 8.33° C | 54% | 1010 hPa | 0 mm | 1.34 m/s, 258° | - | - |
| 1777998716 | 8.33° C | 54% | 1010 hPa | 0 mm | 2.68 m/s, 237° | - | - |
| 1777998418 | 8.33° C | 56% | 1010 hPa | 0 mm | 0 m/s | - | - |
| 1777998118 | 7.78° C | 56% | 1010.1 hPa | 0 mm | 0 m/s | - | - |
| 1777997817 | 7.78° C | 55% | 1010.1 hPa | 0 mm | 4.02 m/s, 331° | - | - |
| 1777997516 | 8.33° C | 55% | 1010.1 hPa | 0 mm | 1.79 m/s, 243° | - | - |
| 1777997216 | 8.33° C | 54% | 1009.9 hPa | 0 mm | 2.24 m/s, 354° | - | - |
| 1777996357 | 7.78° C | 56% | 1010.1 hPa | 0 mm | 1.34 m/s, 288° | - | - |
| 1777996318 | 7.78° C | 56% | 1010.1 hPa | 0 mm | 1.34 m/s, 288° | - | - |
| 1777996031 | 7.78° C | 56% | 1010.1 hPa | 0 mm | 2.24 m/s, 267° | - | - |
| 1777995717 | 7.78° C | 56% | 1010 hPa | 0 mm | 2.24 m/s, 291° | - | - |
| 1777995416 | 7.78° C | 55% | 1010 hPa | 0 mm | 0 m/s | - | - |
| 1777995117 | 7.78° C | 57% | 1010 hPa | 0 mm | 0 m/s | - | - |
| 1777994518 | 7.22° C | 56% | 1010.1 hPa | 0 mm | 1.34 m/s, 277° | - | - |
| 1777993917 | 7.22° C | 58% | 1010 hPa | 0 mm | 0 m/s | - | - |
| 1777993616 | 7.22° C | 57% | 1010.1 hPa | 0 mm | 3.58 m/s, 345° | - | - |
| 1777993316 | 7.22° C | 58% | 1010 hPa | 0 mm | 3.13 m/s, 343° | - | - |
| 1777993016 | 7.22° C | 58% | 1010 hPa | 0 mm | 0 m/s | - | - |
* Rain latest hour (hover to see other rain measurements)
** Current wind speed in m/s (hover to see current wind gust speed)